Time;durP1;ratioP1;P1;durP2;ratioP2;P2;SDS_P1;SDS_P2;PMS_P1;PMS_P2;Temp;Humidity;BMP_temperature;BMP_pressure;BME280_temperature;BME280_humidity;BME280_pressure;Samples;Min_cycle;Max_cycle;Signal;HPM_P1;HPM_P2
2023/03/18 00:01:13;;;;;;;41.60;14.70;;;;;;;8.99;70.30;101342.66;1791476;79;21153;-44
2023/03/18 00:03:42;;;;;;;32.93;13.35;;;;;;;8.94;70.51;101339.27;1740426;81;21557;-40
2023/03/18 00:06:18;;;;;;;35.10;13.22;;;;;;;8.93;70.73;101336.67;1727388;81;21184;-40
2023/03/18 00:08:48;;;;;;;32.25;14.20;;;;;;;9.01;70.63;101340.01;1771181;81;21102;-39
2023/03/18 00:11:20;;;;;;;32.40;14.45;;;;;;;9.06;70.66;101339.46;1770508;81;21589;-41
2023/03/18 00:13:49;;;;;;;29.18;13.45;;;;;;;9.11;70.76;101340.22;1739093;81;21075;-41
2023/03/18 00:16:18;;;;;;;32.20;14.73;;;;;;;9.17;70.82;101342.70;1754216;81;21142;-43
2023/03/18 00:18:47;;;;;;;39.40;15.13;;;;;;;9.23;70.74;101346.48;1765769;81;21611;-41
2023/03/18 00:21:17;;;;;;;38.13;14.58;;;;;;;9.30;70.63;101346.36;1773142;79;21145;-41
2023/03/18 00:23:49;;;;;;;31.48;13.78;;;;;;;9.36;70.43;101344.42;1743403;81;21068;-41
2023/03/18 00:26:17;;;;;;;44.13;15.32;;;;;;;9.40;70.23;101338.19;1732444;82;21068;-40
2023/03/18 00:28:45;;;;;;;36.40;13.72;;;;;;;9.45;70.13;101342.88;1732486;81;21177;-40
2023/03/18 00:31:14;;;;;;;36.93;14.75;;;;;;;9.46;70.11;101339.80;1738556;81;21136;-40
2023/03/18 00:33:44;;;;;;;43.25;15.55;;;;;;;9.42;70.32;101339.47;1773230;79;21157;-41
2023/03/18 00:36:15;;;;;;;41.88;15.72;;;;;;;9.40;70.61;101335.55;1741269;81;21128;-41
2023/03/18 00:38:45;;;;;;;46.15;15.50;;;;;;;9.42;70.78;101334.20;1745130;81;21088;-42
2023/03/18 00:41:20;;;;;;;39.65;13.80;;;;;;;9.42;70.82;101331.58;1760167;81;21501;-43
2023/03/18 00:43:51;;;;;;;33.45;13.13;;;;;;;9.43;70.81;101335.48;1753154;81;21134;-42
2023/03/18 00:46:31;;;;;;;29.57;13.95;;;;;;;9.47;70.51;101337.13;1765758;79;21082;-42
2023/03/18 00:49:03;;;;;;;32.93;13.13;;;;;;;9.48;70.49;101338.02;1797048;80;21059;-42
2023/03/18 00:51:36;;;;;;;31.17;14.65;;;;;;;9.48;70.37;101339.34;1811742;79;21556;-43
2023/03/18 00:54:08;;;;;;;42.90;15.35;;;;;;;9.47;70.55;101337.59;1813359;79;21639;-42
2023/03/18 00:56:37;;;;;;;41.28;14.50;;;;;;;9.51;70.50;101340.55;1797959;79;21035;-43
2023/03/18 00:59:07;;;;;;;34.83;13.88;;;;;;;9.55;70.43;101340.88;1789935;80;21137;-43
2023/03/18 01:01:37;;;;;;;32.55;14.65;;;;;;;9.52;70.45;101344.92;1780892;79;21079;-43
2023/03/18 01:04:07;;;;;;;35.52;13.03;;;;;;;9.54;70.51;101344.89;1775326;80;21070;-43
2023/03/18 01:06:37;;;;;;;38.80;14.63;;;;;;;9.52;70.51;101342.30;1777596;81;21561;-43
2023/03/18 01:09:08;;;;;;;36.38;13.88;;;;;;;9.51;70.48;101344.95;1777560;81;21185;-43
2023/03/18 01:11:37;;;;;;;35.73;15.48;;;;;;;9.49;70.60;101348.93;1777485;81;21165;-42
2023/03/18 01:14:06;;;;;;;40.45;14.87;;;;;;;9.46;70.67;101345.05;1777838;80;21136;-41
2023/03/18 01:16:34;;;;;;;39.88;15.32;;;;;;;9.42;70.97;101353.92;1777524;80;21115;-42
2023/03/18 01:19:03;;;;;;;36.83;14.78;;;;;;;9.44;70.90;101358.69;1777474;81;21075;-42
2023/03/18 01:21:33;;;;;;;47.53;14.53;;;;;;;9.45;70.75;101352.08;1777523;81;21139;-43
2023/03/18 01:24:03;;;;;;;47.20;15.45;;;;;;;9.48;70.63;101366.94;1777746;80;21543;-43
2023/03/18 01:26:32;;;;;;;44.25;16.57;;;;;;;9.45;70.72;101372.26;1786289;80;21629;-42
2023/03/18 01:29:01;;;;;;;43.02;14.87;;;;;;;9.41;70.96;101369.30;1760016;80;21142;-44
2023/03/18 01:31:30;;;;;;;52.17;16.15;;;;;;;9.37;71.19;101371.56;1786255;80;21575;-44
2023/03/18 01:34:01;;;;;;;45.98;16.05;;;;;;;9.36;71.24;101371.17;1785500;80;21554;-41
2023/03/18 01:36:32;;;;;;;36.60;13.28;;;;;;;9.33;71.48;101368.14;1792391;79;21074;-41
2023/03/18 01:39:02;;;;;;;34.92;13.70;;;;;;;9.35;71.46;101379.51;1789974;79;21502;-41
2023/03/18 01:41:31;;;;;;;35.68;14.47;;;;;;;9.35;71.25;101374.25;1794908;79;21466;-43
2023/03/18 01:44:00;;;;;;;40.17;15.83;;;;;;;9.36;71.13;101377.27;1786634;79;21041;-41
2023/03/18 01:46:35;;;;;;;32.05;14.60;;;;;;;9.38;71.12;101377.25;1781767;79;21489;-45
2023/03/18 01:49:14;;;;;;;38.33;16.80;;;;;;;9.40;71.14;101384.18;1830781;77;21301;-41
2023/03/18 01:51:45;;;;;;;35.30;15.93;;;;;;;9.39;71.24;101382.93;1834785;78;21067;-41
2023/03/18 01:54:15;;;;;;;38.02;16.20;;;;;;;9.36;71.51;101390.88;1829153;78;21050;-41
2023/03/18 01:56:47;;;;;;;44.95;16.02;;;;;;;9.38;71.44;101379.87;1814006;78;21103;-41
2023/03/18 01:59:16;;;;;;;43.25;15.65;;;;;;;9.41;71.37;101386.38;1801292;79;21093;-41
2023/03/18 02:01:57;;;;;;;50.65;16.20;;;;;;;9.43;71.35;101378.00;1825169;78;21098;-42
2023/03/18 02:04:29;;;;;;;41.10;15.90;;;;;;;9.47;71.31;101386.23;1824208;78;21552;-41
2023/03/18 02:07:00;;;;;;;51.05;15.93;;;;;;;9.47;71.30;101384.91;1806512;78;21087;-40
2023/03/18 02:09:29;;;;;;;39.20;15.85;;;;;;;9.46;71.27;101379.23;1800799;78;21497;-40
2023/03/18 02:12:01;;;;;;;35.00;14.53;;;;;;;9.48;71.28;101382.71;1827817;78;21126;-43
2023/03/18 02:14:31;;;;;;;40.83;15.95;;;;;;;9.51;71.24;101385.24;1810857;78;21101;-41
2023/03/18 02:17:02;;;;;;;42.62;15.32;;;;;;;9.44;71.35;101387.60;1802054;79;21525;-41
2023/03/18 02:19:56;;;;;;;41.53;15.50;;;;;;;9.43;71.33;101387.20;1767379;80;21065;-41
2023/03/18 02:22:38;;;;;;;38.95;15.85;;;;;;;9.42;71.30;101385.47;1768211;81;21069;-41
2023/03/18 02:25:13;;;;;;;36.85;14.63;;;;;;;9.43;71.35;101392.47;1768201;81;21096;-42
2023/03/18 02:27:47;;;;;;;31.70;14.15;;;;;;;9.46;71.35;101393.69;1767189;80;21064;-42
2023/03/18 02:30:18;;;;;;;41.05;15.13;;;;;;;9.49;71.30;101398.02;1767075;81;21228;-43
2023/03/18 02:32:50;;;;;;;39.58;14.25;;;;;;;9.50;71.30;101397.99;1766890;80;21182;-41
2023/03/18 02:35:19;;;;;;;36.33;14.63;;;;;;;9.49;71.21;101397.56;1767152;81;21124;-41
2023/03/18 02:37:48;;;;;;;39.45;15.10;;;;;;;9.50;71.13;101399.31;1785611;80;21485;-41
2023/03/18 02:40:26;;;;;;;48.60;15.25;;;;;;;9.51;71.14;101401.48;1805018;78;21532;-41
2023/03/18 02:42:56;;;;;;;43.83;15.85;;;;;;;9.51;71.23;101403.64;1827431;78;21208;-40
2023/03/18 02:45:42;;;;;;;47.95;16.30;;;;;;;9.52;71.32;101401.45;1828207;78;21037;-43
2023/03/18 02:48:15;;;;;;;50.45;16.97;;;;;;;9.55;71.34;101401.34;1796945;78;21066;-40
2023/03/18 02:50:44;;;;;;;51.23;16.30;;;;;;;9.56;71.38;101398.30;1827428;78;21073;-44
2023/03/18 02:53:14;;;;;;;51.68;16.82;;;;;;;9.50;71.58;101403.25;1818083;78;21066;-40
2023/03/18 02:55:43;;;;;;;41.18;16.30;;;;;;;9.47;71.75;101403.31;1826107;78;21506;-42
2023/03/18 02:58:12;;;;;;;38.15;17.15;;;;;;;9.45;71.97;101403.80;1810029;78;21046;-44
2023/03/18 03:00:41;;;;;;;40.17;16.75;;;;;;;9.47;72.11;101409.88;1812278;78;21501;-40
2023/03/18 03:03:10;;;;;;;44.30;16.42;;;;;;;9.47;72.21;101412.52;1790502;78;21140;-41
2023/03/18 03:05:39;;;;;;;45.40;17.55;;;;;;;9.50;72.10;101409.82;1801053;78;21537;-41
2023/03/18 03:08:08;;;;;;;49.40;16.75;;;;;;;9.52;72.11;101404.53;1815322;78;21074;-39
2023/03/18 03:10:38;;;;;;;46.50;17.10;;;;;;;9.54;72.14;101400.95;1790844;78;21070;-42
2023/03/18 03:13:13;;;;;;;45.28;17.25;;;;;;;9.54;72.21;101403.58;1793755;79;21108;-41
2023/03/18 03:15:40;;;;;;;39.13;16.70;;;;;;;9.57;72.31;101415.34;1802398;79;21094;-44
2023/03/18 03:18:10;;;;;;;42.30;15.90;;;;;;;9.59;72.21;101403.45;1798135;79;21116;-43
2023/03/18 03:20:40;;;;;;;47.30;16.97;;;;;;;9.58;72.20;101411.80;1801188;79;21512;-42
2023/03/18 03:23:12;;;;;;;35.33;17.15;;;;;;;9.58;72.26;101414.43;1802700;79;21493;-43
2023/03/18 03:25:43;;;;;;;49.10;17.35;;;;;;;9.56;72.42;101416.70;1802795;79;21042;-42
2023/03/18 03:28:15;;;;;;;44.25;16.60;;;;;;;9.57;72.33;101419.30;1802719;79;21082;-40
2023/03/18 03:30:44;;;;;;;54.93;16.52;;;;;;;9.59;72.26;101418.80;1804703;78;21091;-41
2023/03/18 03:33:13;;;;;;;51.02;18.27;;;;;;;9.57;72.33;101424.55;1794059;78;21056;-41
2023/03/18 03:35:42;;;;;;;45.80;17.65;;;;;;;9.55;72.50;101425.47;1743889;82;21570;-41
2023/03/18 03:38:11;;;;;;;42.17;15.98;;;;;;;9.55;72.62;101419.75;1787501;80;21101;-41
2023/03/18 03:40:40;;;;;;;46.30;17.07;;;;;;;9.57;72.66;101415.78;1802233;80;21144;-41
2023/03/18 03:43:11;;;;;;;43.78;16.62;;;;;;;9.58;72.65;101421.00;1802054;80;21139;-41
2023/03/18 03:45:42;;;;;;;53.78;15.60;;;;;;;9.60;72.66;101423.14;1802161;79;21492;-38
2023/03/18 03:48:11;;;;;;;37.55;16.10;;;;;;;9.62;72.70;101423.11;1802167;79;21496;-39
2023/03/18 03:50:40;;;;;;;41.98;16.87;;;;;;;9.62;72.73;101427.91;1781672;79;21270;-40
2023/03/18 03:53:10;;;;;;;34.63;16.30;;;;;;;9.61;72.87;101420.94;1795769;80;21573;-38
2023/03/18 03:55:40;;;;;;;44.25;16.70;;;;;;;9.61;72.97;101422.72;1820858;79;21496;-40
2023/03/18 03:58:09;;;;;;;50.08;18.00;;;;;;;9.61;73.02;101422.25;1807829;79;21638;-40
2023/03/18 04:00:38;;;;;;;43.30;17.52;;;;;;;9.64;73.05;101422.62;1820112;79;21523;-41
2023/03/18 04:03:07;;;;;;;54.38;16.50;;;;;;;9.65;72.95;101426.53;1802897;79;21139;-40
2023/03/18 04:05:36;;;;;;;50.45;16.48;;;;;;;9.69;72.81;101438.30;1803020;79;21154;-40
2023/03/18 04:08:05;;;;;;;49.65;18.25;;;;;;;9.72;72.73;101440.84;1809835;79;21536;-37
2023/03/18 04:10:37;;;;;;;44.35;17.27;;;;;;;9.74;72.65;101441.66;1825048;79;21112;-37
2023/03/18 04:13:07;;;;;;;49.60;16.50;;;;;;;9.74;72.63;101442.55;1825140;78;21158;-37
2023/03/18 04:15:36;;;;;;;47.35;18.55;;;;;;;9.74;72.77;101440.34;1825366;78;21066;-37
2023/03/18 04:18:07;;;;;;;57.38;17.55;;;;;;;9.76;72.80;101442.52;1823892;79;21491;-37
2023/03/18 04:20:37;;;;;;;41.30;17.67;;;;;;;9.76;72.85;101442.05;1825318;79;21563;-37
2023/03/18 04:23:08;;;;;;;53.58;18.70;;;;;;;9.79;72.86;101445.05;1824290;78;21097;-36
2023/03/18 04:25:37;;;;;;;53.83;16.97;;;;;;;9.82;72.83;101442.35;1825342;78;21622;-37
2023/03/18 04:28:06;;;;;;;46.25;17.60;;;;;;;9.84;72.78;101447.13;1825370;78;21070;-37
2023/03/18 04:30:36;;;;;;;40.17;16.75;;;;;;;9.86;72.76;101442.69;1825002;79;21093;-36
2023/03/18 04:33:06;;;;;;;57.33;19.32;;;;;;;9.85;72.87;101451.50;1824972;78;21207;-37
2023/03/18 04:35:36;;;;;;;43.28;18.20;;;;;;;9.83;73.01;101446.70;1825444;78;21595;-37
2023/03/18 04:38:05;;;;;;;48.58;18.77;;;;;;;9.84;73.09;101451.06;1825251;79;21478;-37
2023/03/18 04:40:34;;;;;;;54.30;20.17;;;;;;;9.86;73.28;101450.58;1825433;79;21058;-37
2023/03/18 04:43:03;;;;;;;52.45;19.70;;;;;;;9.89;73.38;101462.34;1825448;79;21525;-37
2023/03/18 04:45:33;;;;;;;51.28;20.02;;;;;;;9.94;73.30;101456.53;1825354;79;21089;-36
2023/03/18 04:48:03;;;;;;;52.35;18.92;;;;;;;9.99;73.26;101457.71;1825350;79;21535;-37
2023/03/18 04:50:33;;;;;;;53.28;20.05;;;;;;;10.02;73.23;101458.50;1807367;78;21183;-37
2023/03/18 04:53:02;;;;;;;51.58;19.65;;;;;;;10.05;73.23;101457.12;1798089;80;21588;-37
2023/03/18 04:55:32;;;;;;;53.38;18.55;;;;;;;10.07;73.35;101459.72;1798024;79;21141;-37
2023/03/18 04:58:02;;;;;;;58.68;18.60;;;;;;;10.11;73.35;101457.88;1798001;80;21058;-37
2023/03/18 05:00:31;;;;;;;54.33;17.40;;;;;;;10.14;73.31;101459.09;1798006;80;21575;-37
2023/03/18 05:03:02;;;;;;;54.25;18.40;;;;;;;10.19;73.22;101462.47;1796631;79;21101;-37
2023/03/18 05:05:31;;;;;;;57.73;17.85;;;;;;;10.23;73.10;101464.11;1798075;80;21133;-37
2023/03/18 05:08:00;;;;;;;46.65;17.55;;;;;;;10.23;73.09;101456.22;1798001;79;21086;-37
2023/03/18 05:10:30;;;;;;;47.35;17.52;;;;;;;10.25;73.14;101462.30;1798077;80;21050;-37
2023/03/18 05:12:59;;;;;;;45.55;16.82;;;;;;;10.26;73.14;101462.73;1798137;79;21496;-37
2023/03/18 05:15:30;;;;;;;50.30;17.07;;;;;;;10.27;73.12;101468.38;1797635;79;21168;-38
2023/03/18 05:18:00;;;;;;;69.67;18.02;;;;;;;10.28;73.12;101467.95;1798125;80;21486;-37
2023/03/18 05:20:29;;;;;;;46.30;17.70;;;;;;;10.30;73.17;101472.73;1798020;80;21514;-37
2023/03/18 05:22:58;;;;;;;58.85;17.37;;;;;;;10.33;73.15;101473.55;1798059;80;21082;-37
2023/03/18 05:25:29;;;;;;;55.95;18.23;;;;;;;10.31;73.20;101472.72;1796133;79;21085;-37
2023/03/18 05:27:58;;;;;;;51.08;16.55;;;;;;;10.32;73.29;101471.80;1797915;80;21077;-38
2023/03/18 05:30:28;;;;;;;43.48;15.83;;;;;;;10.35;73.34;101467.78;1797461;79;21165;-37
2023/03/18 05:32:57;;;;;;;39.80;12.82;;;;;;;10.36;73.43;101477.39;1798172;80;21152;-36
2023/03/18 05:35:27;;;;;;;54.77;16.30;;;;;;;10.38;73.45;101481.30;1796870;79;21121;-37
2023/03/18 05:37:56;;;;;;;41.73;14.43;;;;;;;10.39;73.47;101473.38;1798010;80;21058;-37
2023/03/18 05:40:25;;;;;;;47.93;17.35;;;;;;;10.42;73.45;101479.88;1797987;80;21160;-37
2023/03/18 05:42:58;;;;;;;62.38;19.05;;;;;;;10.46;73.45;101477.14;1797418;79;21074;-37
2023/03/18 05:45:28;;;;;;;64.07;19.98;;;;;;;10.49;73.45;101478.39;1796590;79;21080;-37
2023/03/18 05:47:58;;;;;;;62.70;20.72;;;;;;;10.52;73.40;101480.95;1798119;80;21590;-36
2023/03/18 05:50:36;;;;;;;49.77;16.55;;;;;;;10.55;73.38;101480.84;1797971;78;21134;-37
2023/03/18 05:53:07;;;;;;;50.23;15.83;;;;;;;10.56;73.41;101482.13;1797830;79;21175;-37
2023/03/18 05:55:37;;;;;;;37.17;15.20;;;;;;;10.57;73.42;101484.33;1797947;79;21120;-37
2023/03/18 05:58:07;;;;;;;48.52;15.43;;;;;;;10.58;73.46;101488.22;1797970;80;21078;-37
2023/03/18 06:00:36;;;;;;;46.75;15.98;;;;;;;10.57;73.52;101480.38;1798106;80;21591;-37
2023/03/18 06:03:05;;;;;;;41.45;16.70;;;;;;;10.55;73.60;101482.16;1798142;80;21031;-37
2023/03/18 06:05:34;;;;;;;53.50;17.50;;;;;;;10.55;73.69;101489.63;1797901;79;21538;-37
2023/03/18 06:08:03;;;;;;;51.63;17.80;;;;;;;10.56;73.69;101488.71;1798067;80;21078;-37
2023/03/18 06:10:33;;;;;;;49.73;18.95;;;;;;;10.57;73.70;101492.23;1798111;80;21047;-37
2023/03/18 06:13:01;;;;;;;53.87;16.90;;;;;;;10.57;73.72;101494.87;1798014;80;21046;-37
2023/03/18 06:15:30;;;;;;;50.88;18.32;;;;;;;10.58;73.76;101496.11;1797945;80;21051;-37
2023/03/18 06:17:59;;;;;;;50.55;17.23;;;;;;;10.59;73.83;101496.54;1797937;79;21133;-37
2023/03/18 06:20:29;;;;;;;60.38;18.25;;;;;;;10.61;73.86;101497.82;1798154;80;21126;-37
2023/03/18 06:22:58;;;;;;;58.75;18.70;;;;;;;10.62;73.84;101503.05;1798052;79;21133;-37
2023/03/18 06:25:27;;;;;;;56.68;17.55;;;;;;;10.64;73.83;101502.98;1798069;80;21509;-37
2023/03/18 06:27:56;;;;;;;52.43;19.00;;;;;;;10.65;73.86;101506.50;1797996;80;21078;-37
2023/03/18 06:30:26;;;;;;;51.85;18.10;;;;;;;10.62;73.95;101508.32;1797985;79;21086;-37
2023/03/18 06:32:55;;;;;;;55.00;17.17;;;;;;;10.62;73.99;101508.75;1797945;79;21108;-37
2023/03/18 06:35:30;;;;;;;43.85;17.67;;;;;;;10.64;74.04;101509.56;1797812;79;21067;-37
2023/03/18 06:37:59;;;;;;;56.85;19.07;;;;;;;10.66;74.03;101514.38;1798082;80;21105;-37
2023/03/18 06:40:28;;;;;;;43.25;16.02;;;;;;;10.66;73.99;101507.78;1797986;80;21084;-37
2023/03/18 06:42:57;;;;;;;52.90;20.08;;;;;;;10.71;73.93;101512.91;1797986;80;21518;-37
2023/03/18 06:45:28;;;;;;;49.58;15.88;;;;;;;10.71;73.91;101513.77;1797258;79;21129;-37
2023/03/18 06:47:59;;;;;;;47.05;16.40;;;;;;;10.69;73.92;101512.95;1797851;79;21144;-37
2023/03/18 06:50:29;;;;;;;54.35;16.23;;;;;;;10.68;73.92;101516.50;1798064;80;21960;-37
2023/03/18 06:52:59;;;;;;;48.17;17.67;;;;;;;10.69;73.95;101522.17;1798006;79;21565;-37
2023/03/18 06:55:29;;;;;;;51.75;17.00;;;;;;;10.74;73.90;101524.69;1797739;79;21596;-38
2023/03/18 06:57:58;;;;;;;46.02;15.88;;;;;;;10.79;73.82;101524.97;1797870;80;21158;-37
2023/03/18 07:00:30;;;;;;;52.33;16.70;;;;;;;10.81;73.79;101525.80;1797452;79;21129;-37
2023/03/18 07:03:00;;;;;;;44.10;14.75;;;;;;;10.86;73.71;101526.97;1797948;80;21149;-37
2023/03/18 07:05:29;;;;;;;42.85;16.77;;;;;;;10.87;73.65;101527.39;1797963;80;21114;-37
2023/03/18 07:07:58;;;;;;;52.20;17.73;;;;;;;10.88;73.64;101528.25;1797955;80;21060;-37
2023/03/18 07:10:29;;;;;;;48.83;16.45;;;;;;;10.89;73.59;101529.99;1797868;80;21141;-37
2023/03/18 07:12:59;;;;;;;54.13;16.15;;;;;;;10.88;73.61;101527.82;1797315;79;21105;-37
2023/03/18 07:15:29;;;;;;;51.33;16.97;;;;;;;10.91;73.63;101520.27;1797978;80;21058;-37
2023/03/18 07:17:59;;;;;;;52.05;16.23;;;;;;;10.92;73.59;101518.91;1797943;80;21524;-37
2023/03/18 07:20:28;;;;;;;46.50;15.28;;;;;;;11.01;73.52;101517.77;1797951;80;21071;-37
2023/03/18 07:22:58;;;;;;;35.10;14.78;;;;;;;11.05;73.39;101522.06;1797942;80;21169;-37
2023/03/18 07:25:30;;;;;;;44.95;14.25;;;;;;;11.06;73.28;101515.88;1797884;79;21089;-37
2023/03/18 07:27:59;;;;;;;35.70;14.33;;;;;;;11.07;73.22;101524.20;1797969;80;21445;-37
2023/03/18 07:30:29;;;;;;;100.00;34.40;;;;;;;11.04;73.07;101522.96;1798035;80;21619;-37
2023/03/18 07:32:58;;;;;;;45.20;16.75;;;;;;;10.99;73.05;101524.86;1797947;79;21521;-37
2023/03/18 07:35:27;;;;;;;52.15;18.17;;;;;;;10.98;73.06;101524.47;1797945;80;21165;-36
2023/03/18 07:37:56;;;;;;;42.95;13.72;;;;;;;10.96;73.03;101526.28;1797999;80;21030;-37
2023/03/18 07:40:25;;;;;;;59.60;21.17;;;;;;;10.93;73.01;101532.95;1798021;79;21019;-37
2023/03/18 07:42:54;;;;;;;59.18;22.85;;;;;;;10.90;73.00;101526.43;1797925;80;21034;-36
2023/03/18 07:45:23;;;;;;;49.40;20.68;;;;;;;10.90;73.05;101522.05;1797948;80;21059;-37
2023/03/18 07:47:52;;;;;;;49.50;19.25;;;;;;;10.92;73.04;101525.94;1797801;80;21166;-37
2023/03/18 07:50:20;;;;;;;54.03;16.77;;;;;;;10.96;73.05;101527.59;1797916;80;21098;-37
2023/03/18 07:52:49;;;;;;;37.55;15.10;;;;;;;11.01;73.02;101524.36;1797946;78;21160;-37
2023/03/18 07:55:18;;;;;;;45.90;14.38;;;;;;;11.05;72.90;101527.34;1797937;80;21502;-37
2023/03/18 07:57:47;;;;;;;73.15;28.05;;;;;;;11.05;72.75;101526.02;1798075;80;21109;-37
2023/03/18 08:00:17;;;;;;;52.67;14.80;;;;;;;11.04;72.70;101530.87;1797878;80;21062;-37
2023/03/18 08:02:46;;;;;;;47.23;13.50;;;;;;;11.00;72.67;101530.55;1798024;80;21055;-37
2023/03/18 08:05:14;;;;;;;41.95;13.10;;;;;;;10.95;72.69;101532.45;1797941;80;21062;-37
2023/03/18 08:07:43;;;;;;;52.23;20.08;;;;;;;10.94;72.72;101528.09;1797913;80;21058;-37
2023/03/18 08:10:13;;;;;;;51.73;15.40;;;;;;;10.96;72.69;101531.09;1797920;80;21132;-37
2023/03/18 08:12:42;;;;;;;62.15;19.77;;;;;;;10.97;72.66;101532.83;1797981;80;21031;-39
2023/03/18 08:15:12;;;;;;;44.77;15.88;;;;;;;10.99;72.66;101536.72;1797879;80;21083;-37
2023/03/18 08:17:40;;;;;;;46.28;16.37;;;;;;;10.99;72.56;101540.67;1797912;80;21111;-37
2023/03/18 08:20:11;;;;;;;53.23;18.40;;;;;;;10.94;72.55;101546.55;1797912;80;21058;-37
2023/03/18 08:22:39;;;;;;;37.80;14.80;;;;;;;10.96;72.60;101548.68;1798002;80;21062;-37
2023/03/18 08:25:10;;;;;;;47.55;14.68;;;;;;;11.00;72.61;101550.31;1797878;80;21565;-37
2023/03/18 08:27:39;;;;;;;35.73;12.60;;;;;;;11.05;72.61;101545.79;1797988;80;21544;-37
2023/03/18 08:30:08;;;;;;;44.15;14.80;;;;;;;11.06;72.61;101548.81;1797964;80;21133;-37
2023/03/18 08:32:37;;;;;;;56.13;20.45;;;;;;;11.09;72.60;101550.06;1797874;80;21058;-37
2023/03/18 08:35:08;;;;;;;41.13;12.45;;;;;;;11.11;72.53;101544.28;1797899;80;21158;-37
2023/03/18 08:37:37;;;;;;;42.50;16.45;;;;;;;11.12;72.49;101548.66;1797891;80;21059;-37
2023/03/18 08:40:08;;;;;;;57.48;19.02;;;;;;;11.12;72.45;101546.03;1797864;80;21153;-37
2023/03/18 08:42:37;;;;;;;63.75;28.30;;;;;;;11.14;72.41;101545.53;1797959;80;21031;-37
2023/03/18 08:45:06;;;;;;;126.25;46.10;;;;;;;11.18;72.32;101541.89;1797913;80;21150;-37
2023/03/18 08:47:35;;;;;;;82.82;30.92;;;;;;;11.25;72.28;101543.91;1797995;80;21116;-37
2023/03/18 08:50:04;;;;;;;54.10;19.02;;;;;;;11.32;72.21;101541.94;1797918;80;21035;-37
2023/03/18 08:52:33;;;;;;;52.88;23.32;;;;;;;11.40;72.20;101542.59;1797727;78;21119;-37
2023/03/18 08:55:02;;;;;;;84.85;36.48;;;;;;;11.46;72.08;101545.50;1797891;80;21050;-37
2023/03/18 08:57:30;;;;;;;68.30;30.05;;;;;;;11.50;71.94;101548.45;1797868;80;21600;-37
2023/03/18 08:59:59;;;;;;;52.13;22.85;;;;;;;11.54;71.85;101543.02;1797881;80;21060;-37
2023/03/18 09:02:28;;;;;;;47.05;15.98;;;;;;;11.67;71.79;101542.19;1798032;80;21133;-37
2023/03/18 09:04:57;;;;;;;46.05;17.20;;;;;;;11.80;71.64;101533.44;1797920;80;21038;-37
2023/03/18 09:07:27;;;;;;;30.72;10.18;;;;;;;11.86;71.48;101534.58;1798017;80;21192;-37
2023/03/18 09:09:56;;;;;;;35.10;13.08;;;;;;;11.90;71.34;101528.78;1798098;80;21532;-37
2023/03/18 09:12:24;;;;;;;50.95;17.98;;;;;;;11.85;71.16;101534.16;1798010;80;21070;-37
2023/03/18 09:14:53;;;;;;;46.23;12.93;;;;;;;11.78;71.06;101529.98;1798030;80;21153;-37
2023/03/18 09:17:22;;;;;;;34.05;14.85;;;;;;;11.76;71.08;101524.75;1797865;80;21039;-39
2023/03/18 09:19:50;;;;;;;33.92;11.38;;;;;;;11.78;71.12;101526.03;1798023;80;21160;-37
2023/03/18 09:22:20;;;;;;;29.07;10.82;;;;;;;11.78;71.07;101519.43;1798008;80;21055;-37
2023/03/18 09:24:49;;;;;;;52.35;11.88;;;;;;;11.82;71.06;101519.73;1798114;80;21513;-37
2023/03/18 09:27:17;;;;;;;33.28;12.60;;;;;;;11.86;71.06;101515.23;1797987;80;21151;-37
2023/03/18 09:29:47;;;;;;;39.33;11.33;;;;;;;11.87;71.07;101511.69;1797982;80;21110;-37
2023/03/18 09:32:16;;;;;;;37.38;11.57;;;;;;;11.91;70.97;101512.88;1798003;80;21575;-37
2023/03/18 09:34:45;;;;;;;31.07;11.08;;;;;;;12.04;70.89;101511.16;1798023;80;21066;-37
2023/03/18 09:37:14;;;;;;;44.93;11.88;;;;;;;12.09;70.74;101510.56;1798066;80;21050;-37
2023/03/18 09:39:43;;;;;;;38.13;11.18;;;;;;;12.10;70.64;101507.02;1798001;80;21136;-37
2023/03/18 09:42:48;;;;;;;32.83;11.30;;;;;;;12.10;70.58;101501.75;1798026;79;21557;-37
2023/03/18 09:45:22;;;;;;;37.23;10.53;;;;;;;12.04;70.51;101508.53;1798438;79;21599;-36
2023/03/18 09:48:03;;;;;;;35.05;10.60;;;;;;;12.02;70.52;101503.76;1798063;80;21069;-36
2023/03/18 09:50:52;;;;;;;33.90;11.05;;;;;;;12.02;70.55;101500.66;1797277;79;21105;-36
2023/03/18 09:53:33;;;;;;;26.52;10.40;;;;;;;12.05;70.54;101498.39;1801884;78;21098;-37
2023/03/18 09:56:04;;;;;;;31.60;12.60;;;;;;;12.06;70.46;101500.09;1764521;81;21157;-37
2023/03/18 09:58:45;;;;;;;40.15;14.03;;;;;;;12.12;70.40;101493.31;1764432;81;21176;-37
2023/03/18 10:01:15;;;;;;;37.15;10.65;;;;;;;12.17;70.33;101495.31;1781373;80;21106;-37
2023/03/18 10:03:50;;;;;;;31.02;11.05;;;;;;;12.19;70.25;101500.12;1785818;80;21074;-37
2023/03/18 10:06:23;;;;;;;38.10;12.20;;;;;;;12.15;70.24;101493.19;1785759;80;21066;-37
2023/03/18 10:09:15;;;;;;;31.75;10.75;;;;;;;12.07;70.25;101489.96;1785757;80;21078;-37
2023/03/18 10:11:52;;;;;;;32.55;9.75;;;;;;;12.02;70.30;101490.09;1785596;80;21232;-37
2023/03/18 10:14:36;;;;;;;35.50;10.93;;;;;;;11.87;70.25;101489.26;1764616;81;21051;-36
2023/03/18 10:17:22;;;;;;;27.62;10.45;;;;;;;11.76;70.41;101487.81;1785705;80;21066;-36
2023/03/18 10:19:57;;;;;;;34.25;11.20;;;;;;;11.69;70.58;101486.31;1785362;80;21114;-39
2023/03/18 10:22:34;;;;;;;35.35;11.97;;;;;;;11.67;70.71;101489.89;1785827;80;21074;-37
2023/03/18 10:25:25;;;;;;;35.88;11.65;;;;;;;11.61;70.78;101487.45;1785760;80;21103;-37
2023/03/18 10:28:02;;;;;;;42.08;12.85;;;;;;;11.57;70.86;101482.73;1785825;80;21051;-37
2023/03/18 10:31:05;;;;;;;35.00;11.30;;;;;;;11.53;70.96;101479.33;1785742;80;21066;-37
2023/03/18 10:33:46;;;;;;;42.88;13.68;;;;;;;11.46;71.10;101477.78;1785446;80;21181;-36
2023/03/18 10:36:41;;;;;;;42.35;13.45;;;;;;;11.41;71.21;101473.10;1785722;80;21070;-36
2023/03/18 10:39:12;;;;;;;30.25;11.18;;;;;;;11.38;71.32;101481.13;1785825;80;21490;-36
2023/03/18 10:41:42;;;;;;;39.30;12.58;;;;;;;11.34;71.44;101475.52;1785847;80;21529;-37
2023/03/18 10:44:25;;;;;;;45.43;13.60;;;;;;;11.37;71.45;101478.06;1785705;80;21145;-37
2023/03/18 10:47:03;;;;;;;39.75;11.45;;;;;;;11.36;71.52;101469.73;1785777;80;21619;-37
2023/03/18 10:49:34;;;;;;;41.68;11.40;;;;;;;11.33;71.61;101470.70;1785527;80;21645;-37
2023/03/18 10:52:08;;;;;;;47.17;12.73;;;;;;;11.38;71.67;101473.22;1785778;80;21587;-37
2023/03/18 10:54:51;;;;;;;37.95;11.38;;;;;;;11.39;71.68;101468.34;1781755;80;21114;-37
2023/03/18 10:57:16;;;;;;;44.60;13.30;;;;;;;11.41;71.66;101469.14;1775968;81;21047;-37
2023/03/18 10:59:46;;;;;;;32.42;10.72;;;;;;;11.40;71.67;101465.66;1776996;81;21067;-36
2023/03/18 11:02:26;;;;;;;34.38;12.35;;;;;;;11.43;71.74;101467.32;1776974;81;21149;-36
2023/03/18 11:05:04;;;;;;;40.92;12.68;;;;;;;11.45;71.81;101464.18;1776922;80;21186;-36
2023/03/18 11:07:33;;;;;;;39.35;11.18;;;;;;;11.53;71.93;101467.45;1777020;81;21071;-36
2023/03/18 11:10:13;;;;;;;45.90;11.65;;;;;;;11.67;71.91;101466.15;1777003;81;21055;-36
2023/03/18 11:12:43;;;;;;;37.50;11.50;;;;;;;11.75;71.74;101454.45;1776985;80;21548;-37
2023/03/18 11:15:13;;;;;;;51.23;11.15;;;;;;;11.83;71.61;101454.66;1776910;81;21196;-37
2023/03/18 11:17:44;;;;;;;43.55;12.68;;;;;;;11.85;71.57;101461.59;1776994;81;21541;-37
2023/03/18 11:20:24;;;;;;;53.68;12.37;;;;;;;11.83;71.55;101456.83;1776817;81;21074;-37
2023/03/18 11:22:56;;;;;;;39.85;12.00;;;;;;;11.84;71.51;101461.20;1776862;80;21153;-37
2023/03/18 11:25:29;;;;;;;38.45;12.07;;;;;;;11.83;71.51;101458.61;1776996;81;21071;-37
2023/03/18 11:28:01;;;;;;;38.83;10.93;;;;;;;11.80;71.56;101458.23;1776919;81;21067;-37
2023/03/18 11:30:32;;;;;;;44.08;11.78;;;;;;;11.74;71.64;101462.41;1777005;80;21070;-37